Terminal Aerodrome Forecast
Issued by NWS Twin Cities, MN

Home | Current Version | Previous Version | Graphics & Text | Print | Product List | Glossary On
Versions: 1 2 3 4 5 6 7 8 9 10 11 12 13 14 15 16 17 18
000
FTUS43 KMPX 232327
TAFEAU
TAF
KEAU 232327Z 2400/2424 01008KT P6SM BKN035
     FM240300 02003KT P6SM SKC
     FM240900 06002KT 3SM BR SKC
     FM241200 10005KT P6SM SKC
     FM241900 14006KT P6SM SKC=

USA.gov is the U.S. government's official web portal to all federal, state and local government web resources and services.